createdAt,value
2022-12-19T00:00:02.288Z,42.50
2022-12-19T00:03:15.333Z,42.20
2022-12-19T00:06:02.230Z,40.10
2022-12-19T00:08:46.842Z,41.50
2022-12-19T00:11:30.127Z,42.60
2022-12-19T00:14:12.865Z,42.40
2022-12-19T00:16:55.612Z,41.00
2022-12-19T00:19:38.657Z,41.20
2022-12-19T00:22:21.433Z,37.70
2022-12-19T00:25:07.653Z,41.10
2022-12-19T00:27:51.170Z,38.30
2022-12-19T00:30:33.839Z,39.60
2022-12-19T00:33:16.736Z,43.80
2022-12-19T00:38:48.297Z,41.10
2022-12-19T00:41:33.938Z,42.40
2022-12-19T00:44:16.817Z,42.90
2022-12-19T00:49:42.367Z,39.30
2022-12-19T00:52:26.568Z,39.60
2022-12-19T00:55:19.257Z,43.20
2022-12-19T00:58:02.766Z,44.20
2022-12-19T01:00:45.665Z,38.90
2022-12-19T01:03:28.582Z,41.80
2022-12-19T01:06:13.133Z,44.80
2022-12-19T01:08:57.035Z,35.10
2022-12-19T01:11:58.427Z,44.60
2022-12-19T01:14:41.321Z,40.20
2022-12-19T01:20:09.808Z,43.80
2022-12-19T01:22:52.519Z,41.80
2022-12-19T01:25:36.702Z,43.30
2022-12-19T01:28:21.832Z,39.30
2022-12-19T01:31:06.778Z,40.50
2022-12-19T01:33:52.094Z,44.80
2022-12-19T01:36:39.699Z,43.30
2022-12-19T01:39:23.101Z,42.70
2022-12-19T01:42:15.559Z,42.00
2022-12-19T01:45:13.348Z,42.70
2022-12-19T01:48:11.488Z,38.80
2022-12-19T01:51:02.003Z,41.50
2022-12-19T01:53:51.001Z,39.20
2022-12-19T01:56:40.719Z,43.50
2022-12-19T01:59:31.589Z,40.70
2022-12-19T02:02:30.688Z,45.70
2022-12-19T02:05:13.601Z,39.90
2022-12-19T02:07:57.507Z,46.00
2022-12-19T02:10:40.325Z,46.50
2022-12-19T02:16:16.650Z,43.80
2022-12-19T02:19:39.181Z,42.90
2022-12-19T02:22:49.654Z,42.50
2022-12-19T02:26:01.137Z,41.50
2022-12-19T02:29:02.719Z,41.80
2022-12-19T02:34:44.695Z,43.30
2022-12-19T02:37:34.651Z,39.10
2022-12-19T02:40:28.397Z,41.40
2022-12-19T02:43:15.339Z,41.90
2022-12-19T02:46:01.166Z,38.40
2022-12-19T02:48:47.238Z,39.30
2022-12-19T02:51:32.798Z,39.40
2022-12-19T02:54:17.248Z,38.10
2022-12-19T02:57:32.304Z,39.90
2022-12-19T03:00:20.638Z,37.60
2022-12-19T03:03:19.039Z,39.90
2022-12-19T03:06:05.745Z,37.70
2022-12-19T03:09:04.031Z,37.20
2022-12-19T03:11:52.225Z,37.00
2022-12-19T03:14:37.567Z,39.00
2022-12-19T03:17:20.748Z,34.30
2022-12-19T03:20:46.082Z,36.10
2022-12-19T03:23:30.611Z,34.20
2022-12-19T03:26:19.375Z,36.10
2022-12-19T03:29:18.875Z,36.10
2022-12-19T03:32:10.754Z,35.10
2022-12-19T03:35:03.029Z,36.90
2022-12-19T03:37:49.081Z,36.00
2022-12-19T03:40:33.939Z,33.70
2022-12-19T03:43:24.611Z,35.70
2022-12-19T03:46:23.068Z,34.70
2022-12-19T03:49:06.204Z,36.50
2022-12-19T03:52:01.533Z,33.70
2022-12-19T03:54:59.568Z,33.60
2022-12-19T03:57:58.743Z,36.60
2022-12-19T04:00:47.528Z,36.10
2022-12-19T04:03:34.187Z,30.00
2022-12-19T04:06:17.657Z,34.40
2022-12-19T04:09:01.923Z,35.20
2022-12-19T04:11:53.008Z,31.90
2022-12-19T04:14:38.831Z,34.20
2022-12-19T04:17:49.772Z,36.30
2022-12-19T04:20:37.361Z,36.00
2022-12-19T04:23:31.137Z,31.40
2022-12-19T04:26:17.040Z,34.00
2022-12-19T04:29:03.822Z,31.20
2022-12-19T04:31:48.113Z,30.60
2022-12-19T04:34:32.938Z,32.70
2022-12-19T04:37:15.989Z,31.30
2022-12-19T04:40:00.723Z,31.20
2022-12-19T04:42:43.781Z,30.80
2022-12-19T04:45:27.091Z,30.80
2022-12-19T04:50:53.401Z,30.90
2022-12-19T04:53:36.500Z,29.90
2022-12-19T04:56:19.648Z,31.40
2022-12-19T04:59:03.242Z,30.30
2022-12-19T05:01:46.286Z,31.40
2022-12-19T05:04:29.308Z,28.50
2022-12-19T05:09:56.300Z,28.20
2022-12-19T05:12:41.310Z,27.30
2022-12-19T05:15:26.336Z,29.20
2022-12-19T05:18:10.295Z,29.40
2022-12-19T05:20:53.281Z,25.20
2022-12-19T05:23:36.190Z,27.10
2022-12-19T05:26:19.843Z,28.80
2022-12-19T05:29:03.935Z,28.70
2022-12-19T05:31:47.554Z,28.10
2022-12-19T05:34:30.634Z,26.60
2022-12-19T05:37:13.812Z,31.80
2022-12-19T05:40:01.419Z,30.50
2022-12-19T05:42:45.491Z,32.80
2022-12-19T05:45:32.801Z,28.10
2022-12-19T05:48:17.728Z,30.70
2022-12-19T05:51:02.610Z,31.70
2022-12-19T05:53:50.428Z,31.40
2022-12-19T05:56:37.920Z,35.60
2022-12-19T05:59:21.190Z,33.40
2022-12-19T06:02:13.577Z,30.20
2022-12-19T06:04:57.111Z,32.90
2022-12-19T06:07:39.952Z,32.00
2022-12-19T06:13:05.425Z,31.30
2022-12-19T06:18:32.259Z,29.40
2022-12-19T06:21:23.297Z,35.30
2022-12-19T06:24:08.460Z,34.70
2022-12-19T06:26:51.461Z,30.40
2022-12-19T06:29:36.090Z,32.80
2022-12-19T06:32:19.155Z,30.50
2022-12-19T06:35:04.570Z,32.90
2022-12-19T06:37:56.596Z,30.50
2022-12-19T06:41:03.976Z,30.60
2022-12-19T06:43:51.895Z,32.60
2022-12-19T06:46:40.984Z,31.40
2022-12-19T06:49:24.849Z,31.10
2022-12-19T06:54:52.338Z,29.50
2022-12-19T07:00:48.640Z,32.00
2022-12-19T07:03:39.071Z,30.10
2022-12-19T07:06:23.605Z,33.30
2022-12-19T07:09:10.705Z,32.10
2022-12-19T07:12:10.224Z,31.30
2022-12-19T07:15:00.195Z,35.30
2022-12-19T07:17:46.572Z,34.90
2022-12-19T07:20:32.246Z,33.30
2022-12-19T07:26:35.009Z,32.90
2022-12-19T07:29:22.798Z,30.80
2022-12-19T07:32:27.049Z,32.60
2022-12-19T07:39:02.136Z,32.70
2022-12-19T07:42:32.586Z,28.50
2022-12-19T07:49:19.704Z,37.90
2022-12-19T07:52:09.743Z,35.20
2022-12-19T07:54:56.668Z,37.10
2022-12-19T07:57:43.892Z,38.10
2022-12-19T08:00:29.123Z,33.30
2022-12-19T08:03:17.299Z,30.60
2022-12-19T08:06:11.292Z,29.90
2022-12-19T08:09:00.607Z,29.50
2022-12-19T08:11:53.432Z,30.90
2022-12-19T08:14:57.474Z,30.60
2022-12-19T08:17:51.876Z,31.10
2022-12-19T08:20:55.136Z,28.10
2022-12-19T08:23:41.647Z,29.60
2022-12-19T08:26:40.630Z,30.20
2022-12-19T08:29:30.639Z,30.90
2022-12-19T08:32:23.003Z,25.80
2022-12-19T08:35:11.947Z,29.10
2022-12-19T08:38:03.487Z,28.00
2022-12-19T08:40:53.093Z,28.10
2022-12-19T08:43:36.391Z,27.80
2022-12-19T08:46:20.159Z,28.00
2022-12-19T08:49:03.052Z,32.00
2022-12-19T08:51:46.790Z,27.70
2022-12-19T08:54:29.719Z,31.40
2022-12-19T08:59:55.322Z,27.00
2022-12-19T09:02:39.401Z,28.40
2022-12-19T09:06:03.174Z,29.10
2022-12-19T09:08:31.427Z,29.30
2022-12-19T09:11:17.102Z,28.00
2022-12-19T09:14:00.102Z,29.60
2022-12-19T09:16:43.121Z,30.10
2022-12-19T09:19:26.149Z,31.80
2022-12-19T09:22:09.605Z,30.50
2022-12-19T09:24:52.555Z,32.50
2022-12-19T09:27:53.690Z,30.20
2022-12-19T09:30:38.664Z,31.70
2022-12-19T09:33:21.629Z,29.20
2022-12-19T09:36:06.636Z,29.70
2022-12-19T09:38:50.176Z,28.20
2022-12-19T09:41:55.601Z,25.60
2022-12-19T09:45:01.585Z,27.70
2022-12-19T09:47:49.584Z,24.70
2022-12-19T09:50:50.925Z,25.20
2022-12-19T09:53:58.945Z,25.20
2022-12-19T09:56:46.282Z,25.50
2022-12-19T10:00:12.834Z,23.30
2022-12-19T10:03:22.912Z,27.80
2022-12-19T10:07:06.883Z,25.10
2022-12-19T10:11:08.252Z,25.90
2022-12-19T10:12:50.807Z,26.90
2022-12-19T10:16:01.121Z,26.50
2022-12-19T10:18:57.193Z,24.10
2022-12-19T10:22:19.627Z,25.10
2022-12-19T10:25:12.364Z,24.60
2022-12-19T10:28:20.112Z,24.60
2022-12-19T10:31:22.935Z,23.90
2022-12-19T10:34:30.244Z,24.10
2022-12-19T10:37:31.461Z,22.80
2022-12-19T10:40:44.125Z,22.90
2022-12-19T10:43:44.371Z,24.80
2022-12-19T10:46:42.019Z,25.80
2022-12-19T10:49:28.764Z,24.00
2022-12-19T10:52:13.301Z,23.90
2022-12-19T10:54:56.104Z,24.10
2022-12-19T11:00:22.548Z,23.10
2022-12-19T11:03:35.754Z,26.00
2022-12-19T11:06:34.910Z,24.80
2022-12-19T11:09:29.275Z,26.30
2022-12-19T11:16:06.761Z,28.00
2022-12-19T11:19:47.182Z,25.60
2022-12-19T11:26:24.791Z,25.70
2022-12-19T11:29:47.028Z,25.80
2022-12-19T11:30:46.363Z,22.80
2022-12-19T11:34:16.995Z,23.50
2022-12-19T11:37:22.163Z,26.50
2022-12-19T11:40:36.180Z,26.70
2022-12-19T11:43:47.158Z,24.00
2022-12-19T11:47:13.663Z,25.90
2022-12-19T11:50:04.164Z,26.00
2022-12-19T11:53:19.444Z,23.80
2022-12-19T11:56:15.791Z,24.40
2022-12-19T11:59:05.646Z,19.80
2022-12-19T12:02:10.164Z,22.20
2022-12-19T12:05:05.283Z,21.00
2022-12-19T12:09:42.679Z,20.80
2022-12-19T12:16:46.620Z,22.40
2022-12-19T12:23:58.518Z,19.70
2022-12-19T12:31:04.289Z,20.80
2022-12-19T12:31:17.337Z,21.90
2022-12-19T12:31:51.153Z,21.40
2022-12-19T12:32:05.069Z,23.50
2022-12-19T12:35:15.278Z,22.80
2022-12-19T12:39:42.956Z,21.20
2022-12-19T12:42:47.254Z,22.00
2022-12-19T12:45:40.474Z,24.20
2022-12-19T12:48:47.842Z,22.50
2022-12-19T12:51:33.698Z,19.90
2022-12-19T12:54:17.987Z,21.30
2022-12-19T12:57:01.694Z,19.60
2022-12-19T12:59:46.362Z,21.10
2022-12-19T13:02:30.244Z,22.50
2022-12-19T13:05:22.540Z,21.70
2022-12-19T13:08:46.595Z,20.20
2022-12-19T13:11:47.914Z,21.40
2022-12-19T13:14:39.698Z,19.60
2022-12-19T13:17:48.921Z,20.30
2022-12-19T13:20:42.727Z,21.00
2022-12-19T13:23:38.194Z,19.80
2022-12-19T13:26:44.708Z,20.20
2022-12-19T13:29:51.184Z,19.80
2022-12-19T13:32:53.879Z,20.00
2022-12-19T13:37:09.849Z,19.30
2022-12-19T13:40:02.199Z,18.20
2022-12-19T13:42:20.420Z,21.90
2022-12-19T13:45:12.791Z,19.90
2022-12-19T13:47:58.490Z,21.70
2022-12-19T13:50:42.997Z,21.40
2022-12-19T13:53:28.393Z,20.00
2022-12-19T13:56:17.903Z,22.00
2022-12-19T13:59:04.463Z,19.90
2022-12-19T14:01:47.779Z,19.80
2022-12-19T14:04:33.378Z,21.80
2022-12-19T14:07:36.034Z,22.50
2022-12-19T14:11:31.747Z,22.10
2022-12-19T14:14:01.938Z,20.90
2022-12-19T14:16:48.038Z,21.80
2022-12-19T14:22:26.269Z,22.10
2022-12-19T14:28:14.292Z,21.70
2022-12-19T14:28:29.135Z,23.20
2022-12-19T14:31:16.741Z,24.60
2022-12-19T14:39:45.833Z,21.20
2022-12-19T14:52:35.251Z,19.70
2022-12-19T14:52:51.159Z,22.90
2022-12-19T14:54:25.522Z,22.00
2022-12-19T14:56:15.943Z,21.80
2022-12-19T14:58:52.175Z,19.30
2022-12-19T15:01:39.234Z,21.60
2022-12-19T15:04:53.319Z,20.70
2022-12-19T15:07:32.808Z,21.40
2022-12-19T15:11:05.552Z,21.50
2022-12-19T15:14:54.922Z,21.50
2022-12-19T15:16:35.025Z,22.70
2022-12-19T15:19:17.929Z,20.00
2022-12-19T15:24:43.761Z,20.50
2022-12-19T15:27:26.519Z,19.40
2022-12-19T15:33:03.473Z,20.50
2022-12-19T15:38:29.169Z,20.60
2022-12-19T15:44:05.591Z,18.90
2022-12-19T15:46:49.761Z,19.90
2022-12-19T15:49:35.194Z,19.60
2022-12-19T15:52:20.423Z,20.90
2022-12-19T15:55:03.367Z,22.70
2022-12-19T15:57:51.896Z,23.30
2022-12-19T16:00:36.813Z,21.60
2022-12-19T16:03:23.480Z,21.90
2022-12-19T16:06:13.635Z,21.40
2022-12-19T16:08:56.659Z,22.00
2022-12-19T16:11:39.449Z,23.30
2022-12-19T16:17:10.708Z,22.40
2022-12-19T16:19:53.682Z,25.10
2022-12-19T16:22:38.863Z,22.70
2022-12-19T16:25:33.350Z,23.60
2022-12-19T16:28:34.143Z,24.80
2022-12-19T16:31:23.369Z,24.80
2022-12-19T16:34:16.484Z,23.80
2022-12-19T16:36:59.234Z,23.70
2022-12-19T16:42:25.000Z,22.40
2022-12-19T16:45:20.472Z,24.00
2022-12-19T16:48:11.013Z,24.50
2022-12-19T16:50:53.768Z,25.40
2022-12-19T16:53:36.743Z,25.10
2022-12-19T16:56:50.578Z,23.30
2022-12-19T16:59:37.599Z,24.50
2022-12-19T17:02:41.189Z,24.20
2022-12-19T17:05:30.489Z,23.90
2022-12-19T17:08:13.742Z,24.80
2022-12-19T17:10:56.501Z,25.40
2022-12-19T17:16:21.932Z,24.60
2022-12-19T17:21:48.473Z,23.30
2022-12-19T17:24:31.164Z,24.10
2022-12-19T17:27:14.351Z,25.10
2022-12-19T17:29:57.091Z,25.30
2022-12-19T17:32:40.252Z,26.70
2022-12-19T17:35:28.201Z,25.70
2022-12-19T17:38:16.740Z,26.00
2022-12-19T17:40:59.777Z,29.30
2022-12-19T17:43:43.645Z,25.40
2022-12-19T17:46:26.562Z,25.70
2022-12-19T17:49:16.601Z,27.50
2022-12-19T17:52:00.189Z,27.40
2022-12-19T17:54:43.140Z,28.90
2022-12-19T17:57:26.965Z,27.80
2022-12-19T18:00:10.707Z,28.90
2022-12-19T18:02:56.604Z,27.20
2022-12-19T18:05:39.762Z,31.40
2022-12-19T18:08:33.373Z,27.10
2022-12-19T18:11:23.339Z,28.50
2022-12-19T18:14:06.074Z,32.90
2022-12-19T18:16:50.692Z,29.00
2022-12-19T18:19:36.177Z,29.80
2022-12-19T18:22:19.212Z,30.60
2022-12-19T18:25:03.853Z,28.40
2022-12-19T18:27:46.959Z,28.90
2022-12-19T18:30:30.132Z,29.60
2022-12-19T18:33:18.636Z,27.20
2022-12-19T18:36:01.410Z,30.20
2022-12-19T18:41:27.379Z,28.10
2022-12-19T18:46:53.310Z,28.10
2022-12-19T18:49:37.692Z,28.50
2022-12-19T18:52:22.462Z,29.90
2022-12-19T18:55:19.797Z,29.20
2022-12-19T18:58:02.558Z,29.50
2022-12-19T19:03:32.498Z,28.70
2022-12-19T19:06:20.430Z,27.40
2022-12-19T19:09:03.645Z,27.50
2022-12-19T19:12:15.677Z,28.30
2022-12-19T19:14:58.539Z,29.40
2022-12-19T19:20:27.313Z,28.00
2022-12-19T19:23:12.562Z,26.80
2022-12-19T19:25:56.791Z,26.40
2022-12-19T19:28:39.888Z,26.80
2022-12-19T19:31:27.030Z,30.60
2022-12-19T19:34:23.877Z,28.70
2022-12-19T19:37:10.914Z,27.90
2022-12-19T19:39:53.756Z,28.40
2022-12-19T19:45:19.246Z,27.10
2022-12-19T19:48:04.158Z,28.60
2022-12-19T19:50:47.020Z,27.20
2022-12-19T19:56:12.584Z,25.30
2022-12-19T19:59:00.009Z,28.20
2022-12-19T20:01:43.249Z,30.00
2022-12-19T20:04:26.959Z,28.80
2022-12-19T20:07:10.794Z,27.00
2022-12-19T20:09:54.226Z,26.00
2022-12-19T20:12:36.898Z,27.40
2022-12-19T20:15:20.829Z,28.00
2022-12-19T20:18:03.645Z,28.80
2022-12-19T20:23:30.272Z,25.60
2022-12-19T20:26:17.047Z,25.00
2022-12-19T20:28:59.831Z,25.80
2022-12-19T20:31:42.719Z,25.60
2022-12-19T20:34:26.146Z,25.40
2022-12-19T20:37:09.054Z,26.30
2022-12-19T20:39:53.298Z,25.20
2022-12-19T20:42:36.095Z,26.30
2022-12-19T20:48:01.462Z,26.30
2022-12-19T20:50:46.322Z,26.80
2022-12-19T20:53:29.345Z,28.00
2022-12-19T20:56:15.613Z,24.90
2022-12-19T20:58:58.386Z,25.40
2022-12-19T21:04:24.142Z,23.40
2022-12-19T21:07:07.006Z,24.90
2022-12-19T21:09:51.194Z,24.00
2022-12-19T21:12:33.941Z,26.40
2022-12-19T21:15:16.960Z,24.30
2022-12-19T21:18:01.566Z,23.00
2022-12-19T21:20:44.487Z,25.00
2022-12-19T21:23:27.923Z,24.90
2022-12-19T21:26:11.236Z,25.30
2022-12-19T21:28:54.971Z,25.20
2022-12-19T21:31:37.815Z,24.40
2022-12-19T21:34:21.735Z,26.40
2022-12-19T21:37:04.478Z,25.20
2022-12-19T21:42:30.047Z,25.00
2022-12-19T21:47:55.655Z,24.10
2022-12-19T21:50:38.381Z,26.20
2022-12-19T21:53:21.131Z,23.90
2022-12-19T21:56:19.055Z,23.20
2022-12-19T21:59:04.820Z,24.00
2022-12-19T22:01:47.751Z,23.80
2022-12-19T22:04:31.493Z,29.50
2022-12-19T22:07:14.227Z,25.30
2022-12-19T22:09:56.991Z,22.80
2022-12-19T22:12:40.008Z,24.20
2022-12-19T22:15:22.836Z,25.10
2022-12-19T22:20:48.358Z,25.30
2022-12-19T22:23:31.748Z,23.90
2022-12-19T22:26:17.572Z,25.90
2022-12-19T22:29:00.576Z,24.50
2022-12-19T22:31:44.527Z,25.60
2022-12-19T22:34:28.473Z,25.20
2022-12-19T22:37:11.210Z,24.30
2022-12-19T22:42:37.053Z,23.90
2022-12-19T22:45:19.791Z,24.90
2022-12-19T22:48:02.527Z,25.80
2022-12-19T22:50:47.212Z,24.70
2022-12-19T22:53:30.393Z,23.30
2022-12-19T22:56:19.936Z,25.10
2022-12-19T22:59:06.649Z,24.70
2022-12-19T23:01:49.542Z,26.40
2022-12-19T23:04:32.490Z,24.70
2022-12-19T23:09:58.935Z,24.30
2022-12-19T23:15:24.458Z,23.70
2022-12-19T23:20:49.976Z,24.30
2022-12-19T23:26:19.309Z,23.80
2022-12-19T23:29:05.684Z,23.70
2022-12-19T23:31:48.446Z,24.10
2022-12-19T23:37:14.118Z,23.40
2022-12-19T23:39:57.293Z,23.60
2022-12-19T23:42:40.011Z,23.80
2022-12-19T23:45:22.757Z,25.50
2022-12-19T23:51:07.579Z,22.30
2022-12-19T23:53:50.444Z,23.70
2022-12-19T23:59:15.957Z,22.60
